sensor_id;sensor_type;location;lat;lon;timestamp;P1;durP1;ratioP1;P2;durP2;ratioP2
9906;SDS011;4992;51.628;6.664;2023-03-01T00:01:06;7.63;;;6.83;;
9906;SDS011;4992;51.628;6.664;2023-03-01T00:03:32;9.10;;;6.90;;
9906;SDS011;4992;51.628;6.664;2023-03-01T00:05:59;9.03;;;7.53;;
9906;SDS011;4992;51.628;6.664;2023-03-01T00:08:26;9.07;;;7.33;;
9906;SDS011;4992;51.628;6.664;2023-03-01T00:11:05;8.80;;;7.53;;
9906;SDS011;4992;51.628;6.664;2023-03-01T00:13:42;8.73;;;6.90;;
9906;SDS011;4992;51.628;6.664;2023-03-01T00:16:10;8.50;;;7.07;;
9906;SDS011;4992;51.628;6.664;2023-03-01T00:18:38;7.70;;;6.77;;
9906;SDS011;4992;51.628;6.664;2023-03-01T00:21:04;6.83;;;6.13;;
9906;SDS011;4992;51.628;6.664;2023-03-01T00:23:30;8.23;;;6.57;;
9906;SDS011;4992;51.628;6.664;2023-03-01T00:25:56;8.70;;;6.63;;
9906;SDS011;4992;51.628;6.664;2023-03-01T00:28:22;8.30;;;7.50;;
9906;SDS011;4992;51.628;6.664;2023-03-01T00:30:48;7.70;;;6.90;;
9906;SDS011;4992;51.628;6.664;2023-03-01T00:33:14;8.33;;;7.50;;
9906;SDS011;4992;51.628;6.664;2023-03-01T00:35:39;8.00;;;7.20;;
9906;SDS011;4992;51.628;6.664;2023-03-01T00:38:05;8.20;;;7.23;;
9906;SDS011;4992;51.628;6.664;2023-03-01T00:40:32;7.60;;;6.90;;
9906;SDS011;4992;51.628;6.664;2023-03-01T00:42:59;7.00;;;6.23;;
9906;SDS011;4992;51.628;6.664;2023-03-01T00:45:26;8.50;;;7.57;;
9906;SDS011;4992;51.628;6.664;2023-03-01T00:47:52;10.07;;;6.83;;
9906;SDS011;4992;51.628;6.664;2023-03-01T00:50:18;10.30;;;7.13;;
9906;SDS011;4992;51.628;6.664;2023-03-01T00:52:45;9.00;;;6.97;;
9906;SDS011;4992;51.628;6.664;2023-03-01T00:55:10;7.90;;;7.10;;
9906;SDS011;4992;51.628;6.664;2023-03-01T00:57:36;8.97;;;6.97;;
9906;SDS011;4992;51.628;6.664;2023-03-01T01:00:03;7.93;;;7.10;;
9906;SDS011;4992;51.628;6.664;2023-03-01T01:02:32;9.73;;;6.97;;
9906;SDS011;4992;51.628;6.664;2023-03-01T01:04:58;7.50;;;6.70;;
9906;SDS011;4992;51.628;6.664;2023-03-01T01:07:24;8.30;;;6.73;;
9906;SDS011;4992;51.628;6.664;2023-03-01T01:09:50;7.70;;;7.00;;
9906;SDS011;4992;51.628;6.664;2023-03-01T01:12:15;8.23;;;6.27;;
9906;SDS011;4992;51.628;6.664;2023-03-01T01:14:41;7.30;;;6.33;;
9906;SDS011;4992;51.628;6.664;2023-03-01T01:17:06;7.80;;;6.73;;
9906;SDS011;4992;51.628;6.664;2023-03-01T01:19:32;8.67;;;6.63;;
9906;SDS011;4992;51.628;6.664;2023-03-01T01:21:58;7.47;;;6.67;;
9906;SDS011;4992;51.628;6.664;2023-03-01T01:24:23;9.87;;;6.87;;
9906;SDS011;4992;51.628;6.664;2023-03-01T01:26:49;7.67;;;6.80;;
9906;SDS011;4992;51.628;6.664;2023-03-01T01:29:15;8.13;;;6.50;;
9906;SDS011;4992;51.628;6.664;2023-03-01T01:31:41;8.63;;;6.50;;
9906;SDS011;4992;51.628;6.664;2023-03-01T01:34:08;8.07;;;6.80;;
9906;SDS011;4992;51.628;6.664;2023-03-01T01:36:41;8.67;;;7.00;;
9906;SDS011;4992;51.628;6.664;2023-03-01T01:39:07;6.97;;;6.27;;
9906;SDS011;4992;51.628;6.664;2023-03-01T01:41:32;7.80;;;6.73;;
9906;SDS011;4992;51.628;6.664;2023-03-01T01:44:16;8.23;;;6.50;;
9906;SDS011;4992;51.628;6.664;2023-03-01T01:46:53;7.90;;;7.10;;
9906;SDS011;4992;51.628;6.664;2023-03-01T01:49:22;8.23;;;7.40;;
9906;SDS011;4992;51.628;6.664;2023-03-01T01:51:55;7.00;;;6.37;;
9906;SDS011;4992;51.628;6.664;2023-03-01T01:54:28;12.20;;;7.17;;
9906;SDS011;4992;51.628;6.664;2023-03-01T01:57:03;7.10;;;6.40;;
9906;SDS011;4992;51.628;6.664;2023-03-01T01:59:33;7.73;;;6.93;;
9906;SDS011;4992;51.628;6.664;2023-03-01T02:02:00;7.77;;;6.90;;
9906;SDS011;4992;51.628;6.664;2023-03-01T02:04:28;9.43;;;7.20;;
9906;SDS011;4992;51.628;6.664;2023-03-01T02:06:58;7.50;;;6.70;;
9906;SDS011;4992;51.628;6.664;2023-03-01T02:09:28;9.27;;;7.10;;
9906;SDS011;4992;51.628;6.664;2023-03-01T02:11:55;8.93;;;7.07;;
9906;SDS011;4992;51.628;6.664;2023-03-01T02:14:22;7.30;;;6.50;;
9906;SDS011;4992;51.628;6.664;2023-03-01T02:16:47;9.27;;;6.90;;
9906;SDS011;4992;51.628;6.664;2023-03-01T02:19:18;7.27;;;6.40;;
9906;SDS011;4992;51.628;6.664;2023-03-01T02:22:07;9.03;;;6.87;;
9906;SDS011;4992;51.628;6.664;2023-03-01T02:27:20;8.10;;;6.90;;
9906;SDS011;4992;51.628;6.664;2023-03-01T02:29:51;8.33;;;6.60;;
9906;SDS011;4992;51.628;6.664;2023-03-01T02:32:17;8.53;;;6.47;;
9906;SDS011;4992;51.628;6.664;2023-03-01T02:34:49;7.67;;;6.27;;
9906;SDS011;4992;51.628;6.664;2023-03-01T02:37:17;7.23;;;6.53;;
9906;SDS011;4992;51.628;6.664;2023-03-01T02:39:50;7.03;;;6.20;;
9906;SDS011;4992;51.628;6.664;2023-03-01T02:42:22;7.93;;;6.90;;
9906;SDS011;4992;51.628;6.664;2023-03-01T02:44:51;7.17;;;6.40;;
9906;SDS011;4992;51.628;6.664;2023-03-01T02:47:18;7.50;;;6.70;;
9906;SDS011;4992;51.628;6.664;2023-03-01T02:49:44;7.67;;;6.43;;
9906;SDS011;4992;51.628;6.664;2023-03-01T02:52:22;7.57;;;6.73;;
9906;SDS011;4992;51.628;6.664;2023-03-01T02:55:13;7.80;;;6.67;;
9906;SDS011;4992;51.628;6.664;2023-03-01T02:57:42;8.13;;;6.37;;
9906;SDS011;4992;51.628;6.664;2023-03-01T03:00:11;7.60;;;6.80;;
9906;SDS011;4992;51.628;6.664;2023-03-01T03:02:44;9.23;;;6.83;;
9906;SDS011;4992;51.628;6.664;2023-03-01T03:05:11;8.47;;;6.83;;
9906;SDS011;4992;51.628;6.664;2023-03-01T03:07:43;8.90;;;6.97;;
9906;SDS011;4992;51.628;6.664;2023-03-01T03:10:11;7.27;;;6.30;;
9906;SDS011;4992;51.628;6.664;2023-03-01T03:12:44;8.07;;;6.70;;
9906;SDS011;4992;51.628;6.664;2023-03-01T03:15:13;7.87;;;7.07;;
9906;SDS011;4992;51.628;6.664;2023-03-01T03:17:40;7.17;;;6.47;;
9906;SDS011;4992;51.628;6.664;2023-03-01T03:20:08;9.10;;;6.80;;
9906;SDS011;4992;51.628;6.664;2023-03-01T03:22:37;7.93;;;6.87;;
9906;SDS011;4992;51.628;6.664;2023-03-01T03:25:04;9.83;;;7.17;;
9906;SDS011;4992;51.628;6.664;2023-03-01T03:27:35;7.50;;;6.80;;
9906;SDS011;4992;51.628;6.664;2023-03-01T03:30:05;8.80;;;7.30;;
9906;SDS011;4992;51.628;6.664;2023-03-01T03:32:34;9.03;;;7.03;;
9906;SDS011;4992;51.628;6.664;2023-03-01T03:35:04;9.03;;;6.97;;
9906;SDS011;4992;51.628;6.664;2023-03-01T03:37:37;7.47;;;6.67;;
9906;SDS011;4992;51.628;6.664;2023-03-01T03:40:22;7.93;;;7.13;;
9906;SDS011;4992;51.628;6.664;2023-03-01T03:42:47;7.80;;;6.57;;
9906;SDS011;4992;51.628;6.664;2023-03-01T03:45:14;8.77;;;7.43;;
9906;SDS011;4992;51.628;6.664;2023-03-01T03:47:40;8.53;;;7.13;;
9906;SDS011;4992;51.628;6.664;2023-03-01T03:50:06;11.93;;;7.80;;
9906;SDS011;4992;51.628;6.664;2023-03-01T03:52:32;9.27;;;7.43;;
9906;SDS011;4992;51.628;6.664;2023-03-01T03:54:58;7.73;;;6.93;;
9906;SDS011;4992;51.628;6.664;2023-03-01T03:57:23;8.70;;;7.37;;
9906;SDS011;4992;51.628;6.664;2023-03-01T03:59:49;7.97;;;7.17;;
9906;SDS011;4992;51.628;6.664;2023-03-01T04:02:14;9.00;;;7.23;;
9906;SDS011;4992;51.628;6.664;2023-03-01T04:04:46;8.77;;;7.00;;
9906;SDS011;4992;51.628;6.664;2023-03-01T04:07:14;9.50;;;7.07;;
9906;SDS011;4992;51.628;6.664;2023-03-01T04:09:41;8.60;;;7.27;;
9906;SDS011;4992;51.628;6.664;2023-03-01T04:12:07;8.87;;;7.30;;
9906;SDS011;4992;51.628;6.664;2023-03-01T04:14:33;7.57;;;6.83;;
9906;SDS011;4992;51.628;6.664;2023-03-01T04:16:59;8.27;;;7.13;;
9906;SDS011;4992;51.628;6.664;2023-03-01T04:19:24;8.47;;;7.53;;
9906;SDS011;4992;51.628;6.664;2023-03-01T04:21:51;9.40;;;7.13;;
9906;SDS011;4992;51.628;6.664;2023-03-01T04:24:17;8.73;;;7.57;;
9906;SDS011;4992;51.628;6.664;2023-03-01T04:26:43;7.30;;;6.57;;
9906;SDS011;4992;51.628;6.664;2023-03-01T04:29:09;10.10;;;7.43;;
9906;SDS011;4992;51.628;6.664;2023-03-01T04:31:34;10.23;;;7.97;;
9906;SDS011;4992;51.628;6.664;2023-03-01T04:34:00;8.07;;;7.00;;
9906;SDS011;4992;51.628;6.664;2023-03-01T04:36:26;11.43;;;8.03;;
9906;SDS011;4992;51.628;6.664;2023-03-01T04:38:53;12.77;;;8.07;;
9906;SDS011;4992;51.628;6.664;2023-03-01T04:41:21;9.40;;;7.83;;
9906;SDS011;4992;51.628;6.664;2023-03-01T04:43:47;11.40;;;7.70;;
9906;SDS011;4992;51.628;6.664;2023-03-01T04:46:14;11.23;;;7.87;;
9906;SDS011;4992;51.628;6.664;2023-03-01T04:48:42;9.53;;;8.03;;
9906;SDS011;4992;51.628;6.664;2023-03-01T04:51:10;8.57;;;7.43;;
9906;SDS011;4992;51.628;6.664;2023-03-01T04:53:38;11.10;;;8.23;;
9906;SDS011;4992;51.628;6.664;2023-03-01T04:56:04;12.77;;;8.10;;
9906;SDS011;4992;51.628;6.664;2023-03-01T04:58:30;13.07;;;7.83;;
9906;SDS011;4992;51.628;6.664;2023-03-01T05:00:56;10.63;;;7.93;;
9906;SDS011;4992;51.628;6.664;2023-03-01T05:03:21;8.93;;;8.00;;
9906;SDS011;4992;51.628;6.664;2023-03-01T05:05:49;13.07;;;7.33;;
9906;SDS011;4992;51.628;6.664;2023-03-01T05:08:16;9.30;;;7.33;;
9906;SDS011;4992;51.628;6.664;2023-03-01T05:10:47;9.67;;;7.80;;
9906;SDS011;4992;51.628;6.664;2023-03-01T05:13:15;11.43;;;8.37;;
9906;SDS011;4992;51.628;6.664;2023-03-01T05:15:46;10.30;;;7.70;;
9906;SDS011;4992;51.628;6.664;2023-03-01T05:18:22;10.10;;;8.50;;
9906;SDS011;4992;51.628;6.664;2023-03-01T05:20:51;9.17;;;7.90;;
9906;SDS011;4992;51.628;6.664;2023-03-01T05:23:23;14.50;;;8.63;;
9906;SDS011;4992;51.628;6.664;2023-03-01T05:25:50;11.93;;;8.20;;
9906;SDS011;4992;51.628;6.664;2023-03-01T05:28:17;8.97;;;7.70;;
9906;SDS011;4992;51.628;6.664;2023-03-01T05:30:44;10.53;;;8.47;;
9906;SDS011;4992;51.628;6.664;2023-03-01T05:33:10;13.87;;;8.37;;
9906;SDS011;4992;51.628;6.664;2023-03-01T05:35:38;9.07;;;8.03;;
9906;SDS011;4992;51.628;6.664;2023-03-01T05:38:08;11.30;;;8.67;;
9906;SDS011;4992;51.628;6.664;2023-03-01T05:40:38;10.03;;;8.53;;
9906;SDS011;4992;51.628;6.664;2023-03-01T05:43:04;12.37;;;9.23;;
9906;SDS011;4992;51.628;6.664;2023-03-01T05:45:32;12.97;;;9.60;;
9906;SDS011;4992;51.628;6.664;2023-03-01T05:47:58;10.10;;;8.37;;
9906;SDS011;4992;51.628;6.664;2023-03-01T05:50:25;10.60;;;8.23;;
9906;SDS011;4992;51.628;6.664;2023-03-01T05:52:57;11.07;;;7.87;;
9906;SDS011;4992;51.628;6.664;2023-03-01T05:55:25;11.43;;;7.90;;
9906;SDS011;4992;51.628;6.664;2023-03-01T05:57:51;10.13;;;8.20;;
9906;SDS011;4992;51.628;6.664;2023-03-01T06:00:17;11.33;;;8.63;;
9906;SDS011;4992;51.628;6.664;2023-03-01T06:02:44;9.67;;;8.20;;
9906;SDS011;4992;51.628;6.664;2023-03-01T06:05:11;14.53;;;9.50;;
9906;SDS011;4992;51.628;6.664;2023-03-01T06:07:37;10.60;;;8.20;;
9906;SDS011;4992;51.628;6.664;2023-03-01T06:10:04;11.20;;;9.37;;
9906;SDS011;4992;51.628;6.664;2023-03-01T06:12:31;10.83;;;7.57;;
9906;SDS011;4992;51.628;6.664;2023-03-01T06:14:58;9.33;;;8.13;;
9906;SDS011;4992;51.628;6.664;2023-03-01T06:17:24;10.77;;;8.03;;
9906;SDS011;4992;51.628;6.664;2023-03-01T06:19:49;11.63;;;8.03;;
9906;SDS011;4992;51.628;6.664;2023-03-01T06:22:15;9.73;;;7.90;;
9906;SDS011;4992;51.628;6.664;2023-03-01T06:24:41;11.07;;;8.50;;
9906;SDS011;4992;51.628;6.664;2023-03-01T06:27:06;10.43;;;8.33;;
9906;SDS011;4992;51.628;6.664;2023-03-01T06:29:32;12.97;;;10.17;;
9906;SDS011;4992;51.628;6.664;2023-03-01T06:31:57;13.13;;;10.27;;
9906;SDS011;4992;51.628;6.664;2023-03-01T06:34:23;13.60;;;9.23;;
9906;SDS011;4992;51.628;6.664;2023-03-01T06:36:49;14.60;;;10.67;;
9906;SDS011;4992;51.628;6.664;2023-03-01T06:39:14;11.60;;;10.23;;
9906;SDS011;4992;51.628;6.664;2023-03-01T06:41:41;11.03;;;9.07;;
9906;SDS011;4992;51.628;6.664;2023-03-01T06:44:07;10.63;;;8.43;;
9906;SDS011;4992;51.628;6.664;2023-03-01T06:46:32;9.20;;;8.07;;
9906;SDS011;4992;51.628;6.664;2023-03-01T06:48:58;8.60;;;7.80;;
9906;SDS011;4992;51.628;6.664;2023-03-01T06:51:23;11.90;;;8.80;;
9906;SDS011;4992;51.628;6.664;2023-03-01T06:53:50;11.60;;;8.00;;
9906;SDS011;4992;51.628;6.664;2023-03-01T06:56:15;10.57;;;8.90;;
9906;SDS011;4992;51.628;6.664;2023-03-01T06:58:41;12.67;;;9.40;;
9906;SDS011;4992;51.628;6.664;2023-03-01T07:01:07;13.30;;;9.37;;
9906;SDS011;4992;51.628;6.664;2023-03-01T07:03:33;9.97;;;8.50;;
9906;SDS011;4992;51.628;6.664;2023-03-01T07:05:59;9.63;;;8.63;;
9906;SDS011;4992;51.628;6.664;2023-03-01T07:08:24;12.40;;;11.20;;
9906;SDS011;4992;51.628;6.664;2023-03-01T07:10:59;9.77;;;8.27;;
9906;SDS011;4992;51.628;6.664;2023-03-01T07:13:27;12.40;;;8.07;;
9906;SDS011;4992;51.628;6.664;2023-03-01T07:15:52;9.93;;;8.17;;
9906;SDS011;4992;51.628;6.664;2023-03-01T07:18:18;9.23;;;7.87;;
9906;SDS011;4992;51.628;6.664;2023-03-01T07:20:44;11.40;;;8.33;;
9906;SDS011;4992;51.628;6.664;2023-03-01T07:23:09;11.00;;;8.10;;
9906;SDS011;4992;51.628;6.664;2023-03-01T07:25:35;9.50;;;7.77;;
9906;SDS011;4992;51.628;6.664;2023-03-01T07:28:01;13.97;;;8.07;;
9906;SDS011;4992;51.628;6.664;2023-03-01T07:30:27;11.03;;;9.20;;
9906;SDS011;4992;51.628;6.664;2023-03-01T07:32:54;11.27;;;8.17;;
9906;SDS011;4992;51.628;6.664;2023-03-01T07:35:20;13.77;;;9.63;;
9906;SDS011;4992;51.628;6.664;2023-03-01T07:37:47;11.97;;;9.13;;
9906;SDS011;4992;51.628;6.664;2023-03-01T07:40:12;11.00;;;8.80;;
9906;SDS011;4992;51.628;6.664;2023-03-01T07:42:38;12.57;;;9.83;;
9906;SDS011;4992;51.628;6.664;2023-03-01T07:45:05;14.47;;;8.90;;
9906;SDS011;4992;51.628;6.664;2023-03-01T07:47:31;14.03;;;9.50;;
9906;SDS011;4992;51.628;6.664;2023-03-01T07:49:57;11.57;;;9.37;;
9906;SDS011;4992;51.628;6.664;2023-03-01T07:52:22;14.90;;;9.90;;
9906;SDS011;4992;51.628;6.664;2023-03-01T07:54:48;16.30;;;10.20;;
9906;SDS011;4992;51.628;6.664;2023-03-01T07:57:14;12.73;;;9.13;;
9906;SDS011;4992;51.628;6.664;2023-03-01T07:59:39;12.83;;;8.93;;
9906;SDS011;4992;51.628;6.664;2023-03-01T08:02:05;12.70;;;8.33;;
9906;SDS011;4992;51.628;6.664;2023-03-01T08:04:31;12.37;;;8.63;;
9906;SDS011;4992;51.628;6.664;2023-03-01T08:06:57;16.57;;;8.27;;
9906;SDS011;4992;51.628;6.664;2023-03-01T08:09:23;12.33;;;7.87;;
9906;SDS011;4992;51.628;6.664;2023-03-01T08:11:49;15.57;;;8.85;;
9906;SDS011;4992;51.628;6.664;2023-03-01T08:14:15;16.90;;;8.23;;
9906;SDS011;4992;51.628;6.664;2023-03-01T08:16:41;9.17;;;6.97;;
9906;SDS011;4992;51.628;6.664;2023-03-01T08:19:07;12.00;;;7.03;;
9906;SDS011;4992;51.628;6.664;2023-03-01T08:21:34;18.13;;;7.70;;
9906;SDS011;4992;51.628;6.664;2023-03-01T08:24:01;9.83;;;6.27;;
9906;SDS011;4992;51.628;6.664;2023-03-01T08:26:31;9.83;;;6.63;;
9906;SDS011;4992;51.628;6.664;2023-03-01T08:28:57;10.90;;;6.20;;
9906;SDS011;4992;51.628;6.664;2023-03-01T08:31:30;11.43;;;6.90;;
9906;SDS011;4992;51.628;6.664;2023-03-01T08:33:58;11.60;;;6.17;;
9906;SDS011;4992;51.628;6.664;2023-03-01T08:36:26;9.03;;;6.73;;
9906;SDS011;4992;51.628;6.664;2023-03-01T08:38:53;13.30;;;6.33;;
9906;SDS011;4992;51.628;6.664;2023-03-01T08:41:19;9.10;;;6.70;;
9906;SDS011;4992;51.628;6.664;2023-03-01T08:43:45;9.87;;;6.30;;
9906;SDS011;4992;51.628;6.664;2023-03-01T08:46:11;12.02;;;7.32;;
9906;SDS011;4992;51.628;6.664;2023-03-01T08:48:37;8.70;;;6.13;;
9906;SDS011;4992;51.628;6.664;2023-03-01T08:51:22;6.97;;;6.23;;
9906;SDS011;4992;51.628;6.664;2023-03-01T08:53:48;8.57;;;6.27;;
9906;SDS011;4992;51.628;6.664;2023-03-01T08:56:14;9.40;;;6.20;;
9906;SDS011;4992;51.628;6.664;2023-03-01T08:58:45;9.30;;;6.43;;
9906;SDS011;4992;51.628;6.664;2023-03-01T09:01:13;8.93;;;6.20;;
9906;SDS011;4992;51.628;6.664;2023-03-01T09:03:40;6.23;;;5.30;;
9906;SDS011;4992;51.628;6.664;2023-03-01T09:06:06;8.43;;;7.50;;
9906;SDS011;4992;51.628;6.664;2023-03-01T09:08:39;6.27;;;5.47;;
9906;SDS011;4992;51.628;6.664;2023-03-01T09:11:08;7.27;;;6.13;;
9906;SDS011;4992;51.628;6.664;2023-03-01T09:13:35;7.90;;;6.37;;
9906;SDS011;4992;51.628;6.664;2023-03-01T09:16:02;9.87;;;6.17;;
9906;SDS011;4992;51.628;6.664;2023-03-01T09:18:29;8.27;;;5.73;;
9906;SDS011;4992;51.628;6.664;2023-03-01T09:21:05;10.00;;;6.33;;
9906;SDS011;4992;51.628;6.664;2023-03-01T09:23:43;7.87;;;5.73;;
9906;SDS011;4992;51.628;6.664;2023-03-01T09:26:21;7.93;;;5.77;;
9906;SDS011;4992;51.628;6.664;2023-03-01T09:28:48;7.30;;;5.47;;
9906;SDS011;4992;51.628;6.664;2023-03-01T09:31:14;7.77;;;6.10;;
9906;SDS011;4992;51.628;6.664;2023-03-01T09:33:41;10.50;;;6.37;;
9906;SDS011;4992;51.628;6.664;2023-03-01T09:36:12;7.93;;;5.73;;
9906;SDS011;4992;51.628;6.664;2023-03-01T09:38:40;7.13;;;5.50;;
9906;SDS011;4992;51.628;6.664;2023-03-01T09:41:10;8.37;;;6.10;;
9906;SDS011;4992;51.628;6.664;2023-03-01T09:43:52;7.07;;;5.07;;
9906;SDS011;4992;51.628;6.664;2023-03-01T09:46:23;7.23;;;5.77;;
9906;SDS011;4992;51.628;6.664;2023-03-01T09:48:51;5.83;;;4.97;;
9906;SDS011;4992;51.628;6.664;2023-03-01T09:51:30;8.13;;;5.47;;
9906;SDS011;4992;51.628;6.664;2023-03-01T09:53:58;7.60;;;5.03;;
9906;SDS011;4992;51.628;6.664;2023-03-01T09:56:30;6.97;;;5.30;;
9906;SDS011;4992;51.628;6.664;2023-03-01T10:07:06;5.53;;;4.93;;
9906;SDS011;4992;51.628;6.664;2023-03-01T10:09:37;5.47;;;4.60;;
9906;SDS011;4992;51.628;6.664;2023-03-01T10:12:07;6.93;;;4.60;;
9906;SDS011;4992;51.628;6.664;2023-03-01T10:14:56;5.43;;;4.63;;
9906;SDS011;4992;51.628;6.664;2023-03-01T10:17:44;4.50;;;4.10;;
9906;SDS011;4992;51.628;6.664;2023-03-01T10:20:26;8.23;;;4.10;;
9906;SDS011;4992;51.628;6.664;2023-03-01T10:22:58;6.63;;;4.70;;
9906;SDS011;4992;51.628;6.664;2023-03-01T10:28:20;6.37;;;5.00;;
9906;SDS011;4992;51.628;6.664;2023-03-01T10:30:55;5.87;;;5.17;;
9906;SDS011;4992;51.628;6.664;2023-03-01T10:33:30;7.47;;;5.20;;
9906;SDS011;4992;51.628;6.664;2023-03-01T10:35:57;6.07;;;4.70;;
9906;SDS011;4992;51.628;6.664;2023-03-01T10:38:23;7.30;;;5.20;;
9906;SDS011;4992;51.628;6.664;2023-03-01T10:40:51;6.67;;;5.33;;
9906;SDS011;4992;51.628;6.664;2023-03-01T10:43:16;7.40;;;4.53;;
9906;SDS011;4992;51.628;6.664;2023-03-01T10:45:42;6.50;;;5.30;;
9906;SDS011;4992;51.628;6.664;2023-03-01T10:50:38;7.83;;;4.87;;
9906;SDS011;4992;51.628;6.664;2023-03-01T10:53:09;6.13;;;4.70;;
9906;SDS011;4992;51.628;6.664;2023-03-01T10:56:08;8.63;;;5.97;;
9906;SDS011;4992;51.628;6.664;2023-03-01T10:58:49;7.53;;;4.83;;
9906;SDS011;4992;51.628;6.664;2023-03-01T11:03:55;9.23;;;5.00;;
9906;SDS011;4992;51.628;6.664;2023-03-01T11:06:30;7.63;;;5.40;;
9906;SDS011;4992;51.628;6.664;2023-03-01T11:08:57;5.67;;;4.93;;
9906;SDS011;4992;51.628;6.664;2023-03-01T11:11:37;5.43;;;4.63;;
9906;SDS011;4992;51.628;6.664;2023-03-01T11:14:20;6.50;;;5.20;;
9906;SDS011;4992;51.628;6.664;2023-03-01T11:17:04;6.37;;;4.70;;
9906;SDS011;4992;51.628;6.664;2023-03-01T11:19:31;4.80;;;4.40;;
9906;SDS011;4992;51.628;6.664;2023-03-01T11:22:07;5.47;;;4.53;;
9906;SDS011;4992;51.628;6.664;2023-03-01T11:24:46;5.70;;;4.83;;
9906;SDS011;4992;51.628;6.664;2023-03-01T11:27:33;7.57;;;4.97;;
9906;SDS011;4992;51.628;6.664;2023-03-01T11:30:16;7.10;;;4.67;;
9906;SDS011;4992;51.628;6.664;2023-03-01T11:36:22;7.17;;;5.00;;
9906;SDS011;4992;51.628;6.664;2023-03-01T11:38:41;6.17;;;4.37;;
9906;SDS011;4992;51.628;6.664;2023-03-01T11:57:47;5.83;;;4.50;;
9906;SDS011;4992;51.628;6.664;2023-03-01T12:00:52;6.27;;;3.93;;
9906;SDS011;4992;51.628;6.664;2023-03-01T12:08:51;4.40;;;4.00;;
9906;SDS011;4992;51.628;6.664;2023-03-01T12:14:08;4.13;;;3.70;;
9906;SDS011;4992;51.628;6.664;2023-03-01T12:25:04;4.40;;;3.93;;
9906;SDS011;4992;51.628;6.664;2023-03-01T12:40:33;7.53;;;4.38;;
9906;SDS011;4992;51.628;6.664;2023-03-01T12:51:51;5.03;;;4.40;;
9906;SDS011;4992;51.628;6.664;2023-03-01T12:54:29;5.43;;;4.85;;
9906;SDS011;4992;51.628;6.664;2023-03-01T12:57:42;4.82;;;4.32;;
9906;SDS011;4992;51.628;6.664;2023-03-01T12:59:58;5.28;;;4.78;;
9906;SDS011;4992;51.628;6.664;2023-03-01T13:02:50;7.47;;;4.90;;
9906;SDS011;4992;51.628;6.664;2023-03-01T13:05:24;6.18;;;4.82;;
9906;SDS011;4992;51.628;6.664;2023-03-01T13:08:00;5.05;;;4.55;;
9906;SDS011;4992;51.628;6.664;2023-03-01T13:10:40;5.60;;;4.82;;
9906;SDS011;4992;51.628;6.664;2023-03-01T13:13:23;5.07;;;4.60;;
9906;SDS011;4992;51.628;6.664;2023-03-01T13:15:50;6.45;;;4.70;;
9906;SDS011;4992;51.628;6.664;2023-03-01T13:20:45;5.03;;;4.53;;
9906;SDS011;4992;51.628;6.664;2023-03-01T13:23:23;5.00;;;4.50;;
9906;SDS011;4992;51.628;6.664;2023-03-01T13:30:59;5.85;;;5.18;;
9906;SDS011;4992;51.628;6.664;2023-03-01T13:35:52;5.95;;;5.30;;
9906;SDS011;4992;51.628;6.664;2023-03-01T13:41:16;5.80;;;5.00;;
9906;SDS011;4992;51.628;6.664;2023-03-01T13:44:11;6.47;;;5.50;;
9906;SDS011;4992;51.628;6.664;2023-03-01T13:46:37;6.65;;;4.95;;
9906;SDS011;4992;51.628;6.664;2023-03-01T13:49:03;6.75;;;5.53;;
9906;SDS011;4992;51.628;6.664;2023-03-01T13:51:29;6.15;;;5.65;;
9906;SDS011;4992;51.628;6.664;2023-03-01T13:53:55;7.43;;;6.07;;
9906;SDS011;4992;51.628;6.664;2023-03-01T13:56:27;6.95;;;6.03;;
9906;SDS011;4992;51.628;6.664;2023-03-01T13:58:58;6.55;;;5.95;;
9906;SDS011;4992;51.628;6.664;2023-03-01T14:01:31;6.20;;;5.60;;
9906;SDS011;4992;51.628;6.664;2023-03-01T14:03:58;6.97;;;6.30;;
9906;SDS011;4992;51.628;6.664;2023-03-01T14:06:26;7.10;;;5.75;;
9906;SDS011;4992;51.628;6.664;2023-03-01T14:09:26;6.75;;;5.47;;
9906;SDS011;4992;51.628;6.664;2023-03-01T14:11:59;7.15;;;6.15;;
9906;SDS011;4992;51.628;6.664;2023-03-01T14:17:28;7.72;;;6.93;;
9906;SDS011;4992;51.628;6.664;2023-03-01T14:19:56;9.10;;;7.18;;
9906;SDS011;4992;51.628;6.664;2023-03-01T14:27:37;6.97;;;6.25;;
9906;SDS011;4992;51.628;6.664;2023-03-01T14:32:37;11.23;;;7.70;;
9906;SDS011;4992;51.628;6.664;2023-03-01T14:35:03;9.35;;;6.40;;
9906;SDS011;4992;51.628;6.664;2023-03-01T14:37:43;7.88;;;6.47;;
9906;SDS011;4992;51.628;6.664;2023-03-01T14:40:19;7.03;;;6.32;;
9906;SDS011;4992;51.628;6.664;2023-03-01T14:43:13;7.40;;;6.70;;
9906;SDS011;4992;51.628;6.664;2023-03-01T14:45:48;6.43;;;5.82;;
9906;SDS011;4992;51.628;6.664;2023-03-01T14:48:15;7.03;;;5.95;;
9906;SDS011;4992;51.628;6.664;2023-03-01T14:50:42;7.35;;;6.57;;
9906;SDS011;4992;51.628;6.664;2023-03-01T14:53:15;7.53;;;6.72;;
9906;SDS011;4992;51.628;6.664;2023-03-01T14:55:42;6.57;;;5.65;;
9906;SDS011;4992;51.628;6.664;2023-03-01T14:58:13;7.32;;;6.10;;
9906;SDS011;4992;51.628;6.664;2023-03-01T15:00:47;8.07;;;7.05;;
9906;SDS011;4992;51.628;6.664;2023-03-01T15:06:00;6.50;;;5.85;;
9906;SDS011;4992;51.628;6.664;2023-03-01T15:08:26;9.02;;;6.57;;
9906;SDS011;4992;51.628;6.664;2023-03-01T15:13:38;6.70;;;6.00;;
9906;SDS011;4992;51.628;6.664;2023-03-01T15:18:33;6.73;;;5.93;;
9906;SDS011;4992;51.628;6.664;2023-03-01T15:21:08;7.87;;;6.70;;
9906;SDS011;4992;51.628;6.664;2023-03-01T15:23:47;6.70;;;6.10;;
9906;SDS011;4992;51.628;6.664;2023-03-01T15:26:25;8.20;;;5.77;;
9906;SDS011;4992;51.628;6.664;2023-03-01T15:28:55;8.10;;;5.97;;
9906;SDS011;4992;51.628;6.664;2023-03-01T15:31:25;5.80;;;5.23;;
9906;SDS011;4992;51.628;6.664;2023-03-01T15:33:52;8.40;;;5.80;;
9906;SDS011;4992;51.628;6.664;2023-03-01T15:36:53;6.00;;;5.40;;
9906;SDS011;4992;51.628;6.664;2023-03-01T15:39:31;8.30;;;5.00;;
9906;SDS011;4992;51.628;6.664;2023-03-01T15:47:43;8.43;;;4.90;;
9906;SDS011;4992;51.628;6.664;2023-03-01T15:50:20;5.83;;;5.00;;
9906;SDS011;4992;51.628;6.664;2023-03-01T15:52:49;6.40;;;4.47;;
9906;SDS011;4992;51.628;6.664;2023-03-01T15:55:34;7.53;;;4.90;;
9906;SDS011;4992;51.628;6.664;2023-03-01T15:58:00;5.63;;;5.03;;
9906;SDS011;4992;51.628;6.664;2023-03-01T16:00:31;7.03;;;5.07;;
9906;SDS011;4992;51.628;6.664;2023-03-01T16:02:58;9.53;;;6.00;;
9906;SDS011;4992;51.628;6.664;2023-03-01T16:07:51;5.67;;;4.60;;
9906;SDS011;4992;51.628;6.664;2023-03-01T16:10:17;6.47;;;4.53;;
9906;SDS011;4992;51.628;6.664;2023-03-01T16:12:44;4.73;;;4.20;;
9906;SDS011;4992;51.628;6.664;2023-03-01T16:15:19;5.23;;;4.23;;
9906;SDS011;4992;51.628;6.664;2023-03-01T16:17:46;5.83;;;4.70;;
9906;SDS011;4992;51.628;6.664;2023-03-01T16:20:12;10.63;;;4.97;;
9906;SDS011;4992;51.628;6.664;2023-03-01T16:22:40;5.87;;;4.90;;
9906;SDS011;4992;51.628;6.664;2023-03-01T16:25:08;7.37;;;5.40;;
9906;SDS011;4992;51.628;6.664;2023-03-01T16:27:37;6.13;;;4.90;;
9906;SDS011;4992;51.628;6.664;2023-03-01T16:30:04;13.57;;;4.73;;
9906;SDS011;4992;51.628;6.664;2023-03-01T16:32:30;7.93;;;5.43;;
9906;SDS011;4992;51.628;6.664;2023-03-01T16:34:56;13.00;;;8.43;;
9906;SDS011;4992;51.628;6.664;2023-03-01T16:37:21;9.70;;;6.90;;
9906;SDS011;4992;51.628;6.664;2023-03-01T16:39:47;11.03;;;9.80;;
9906;SDS011;4992;51.628;6.664;2023-03-01T16:42:15;6.20;;;5.30;;
9906;SDS011;4992;51.628;6.664;2023-03-01T16:44:41;4.77;;;4.20;;
9906;SDS011;4992;51.628;6.664;2023-03-01T16:47:07;5.43;;;4.60;;
9906;SDS011;4992;51.628;6.664;2023-03-01T16:49:33;12.40;;;8.63;;
9906;SDS011;4992;51.628;6.664;2023-03-01T16:51:58;11.07;;;7.57;;
9906;SDS011;4992;51.628;6.664;2023-03-01T16:54:24;6.67;;;5.27;;
9906;SDS011;4992;51.628;6.664;2023-03-01T16:56:50;5.13;;;4.47;;
9906;SDS011;4992;51.628;6.664;2023-03-01T16:59:15;7.27;;;5.23;;
9906;SDS011;4992;51.628;6.664;2023-03-01T17:01:43;7.43;;;4.70;;
9906;SDS011;4992;51.628;6.664;2023-03-01T17:04:12;5.90;;;5.30;;
9906;SDS011;4992;51.628;6.664;2023-03-01T17:06:37;8.80;;;4.50;;
9906;SDS011;4992;51.628;6.664;2023-03-01T17:09:03;7.07;;;4.57;;
9906;SDS011;4992;51.628;6.664;2023-03-01T17:11:29;5.87;;;4.50;;
9906;SDS011;4992;51.628;6.664;2023-03-01T17:13:55;5.93;;;4.70;;
9906;SDS011;4992;51.628;6.664;2023-03-01T17:16:21;5.87;;;4.77;;
9906;SDS011;4992;51.628;6.664;2023-03-01T17:18:47;5.73;;;4.40;;
9906;SDS011;4992;51.628;6.664;2023-03-01T17:21:13;9.17;;;5.73;;
9906;SDS011;4992;51.628;6.664;2023-03-01T17:23:40;11.07;;;7.77;;